createdAt,value
2023-04-17T04:00:26.286Z,0.00
2023-04-17T04:05:26.371Z,0.00
2023-04-17T04:10:26.196Z,4.00
2023-04-17T04:15:33.160Z,4.00
2023-04-17T04:20:26.059Z,8.00
2023-04-17T04:25:26.014Z,20.00
2023-04-17T04:30:25.946Z,32.00
2023-04-17T04:35:25.956Z,52.00
2023-04-17T04:40:25.840Z,76.00
2023-04-17T04:45:25.791Z,108.00
2023-04-17T04:50:25.742Z,144.00
2023-04-17T04:55:25.713Z,176.00
2023-04-17T05:00:25.630Z,216.00
2023-04-17T05:05:25.617Z,276.00
2023-04-17T05:10:25.528Z,324.00
2023-04-17T05:15:25.498Z,344.00
2023-04-17T05:20:25.422Z,376.00
2023-04-17T05:25:25.369Z,472.00
2023-04-17T05:30:25.322Z,556.00
2023-04-17T05:35:25.306Z,752.00
2023-04-17T05:40:25.215Z,780.00
2023-04-17T05:45:25.870Z,924.00
2023-04-17T05:50:25.220Z,1104.00
2023-04-17T05:55:25.080Z,1656.00
2023-04-17T06:00:24.995Z,2012.00
2023-04-17T06:05:25.091Z,1628.00
2023-04-17T06:10:24.917Z,1148.00
2023-04-17T06:15:24.863Z,1184.00
2023-04-17T06:20:24.782Z,1428.00
2023-04-17T06:25:24.736Z,2608.00
2023-04-17T06:30:24.682Z,1788.00
2023-04-17T06:35:24.656Z,1672.00
2023-04-17T06:40:24.570Z,1588.00
2023-04-17T06:45:24.543Z,2040.00
2023-04-17T06:50:24.492Z,2020.00
2023-04-17T06:55:24.435Z,1888.00
2023-04-17T07:00:24.381Z,2360.00
2023-04-17T07:05:24.312Z,3084.00
2023-04-17T07:10:24.382Z,3012.00
2023-04-17T07:15:24.245Z,3320.00
2023-04-17T07:20:24.169Z,4344.00
2023-04-17T07:25:24.093Z,4876.00
2023-04-17T07:30:24.032Z,5796.00
2023-04-17T07:35:24.149Z,4376.00
2023-04-17T07:40:23.922Z,4284.00
2023-04-17T07:45:23.885Z,5040.00
2023-04-17T07:50:23.944Z,10444.00
2023-04-17T07:55:23.843Z,7512.00
2023-04-17T08:00:23.809Z,11804.00
2023-04-17T08:05:23.814Z,9904.00
2023-04-17T08:10:23.620Z,11320.00
2023-04-17T08:15:23.632Z,10460.00
2023-04-17T08:20:23.497Z,9996.00
2023-04-17T08:25:23.434Z,14460.00
2023-04-17T08:30:23.849Z,12544.00
2023-04-17T08:35:23.335Z,11084.00
2023-04-17T08:40:23.517Z,12644.00
2023-04-17T08:45:23.214Z,11024.00
2023-04-17T08:50:23.274Z,7536.00
2023-04-17T08:55:23.138Z,6668.00
2023-04-17T09:00:23.059Z,8888.00
2023-04-17T09:05:23.008Z,10692.00
2023-04-17T09:10:22.933Z,11144.00
2023-04-17T09:15:22.915Z,12100.00
2023-04-17T09:20:22.835Z,11452.00
2023-04-17T09:25:22.778Z,11700.00
2023-04-17T09:30:22.739Z,12136.00
2023-04-17T09:35:22.691Z,12524.00
2023-04-17T09:40:22.634Z,11848.00
2023-04-17T09:45:22.569Z,11704.00
2023-04-17T09:50:22.511Z,12016.00
2023-04-17T09:55:22.476Z,9828.00
2023-04-17T10:00:22.398Z,9800.00
2023-04-17T10:05:22.358Z,11188.00
2023-04-17T10:10:22.287Z,10776.00
2023-04-17T10:15:22.269Z,11872.00
2023-04-17T10:20:22.187Z,11144.00
2023-04-17T10:25:22.138Z,11432.00
2023-04-17T10:30:22.098Z,9292.00
2023-04-17T10:35:22.171Z,8944.00
2023-04-17T10:40:21.987Z,8104.00
2023-04-17T10:45:21.913Z,9588.00
2023-04-17T10:50:21.860Z,9788.00
2023-04-17T10:55:21.845Z,10160.00
2023-04-17T11:00:21.745Z,9872.00
2023-04-17T11:05:21.683Z,9556.00
2023-04-17T11:10:21.637Z,9260.00
2023-04-17T11:15:21.600Z,8092.00
2023-04-17T11:20:21.524Z,9100.00
2023-04-17T11:25:21.469Z,9444.00
2023-04-17T11:30:21.429Z,7780.00
2023-04-17T11:35:21.387Z,10056.00
2023-04-17T11:40:21.307Z,8716.00
2023-04-17T11:45:21.246Z,9768.00
2023-04-17T11:50:21.197Z,9116.00
2023-04-17T11:55:21.193Z,7388.00
2023-04-17T12:00:21.087Z,8696.00
2023-04-17T12:05:21.484Z,9748.00
2023-04-17T12:10:20.983Z,10396.00
2023-04-17T12:15:20.933Z,9220.00
2023-04-17T12:20:20.879Z,8352.00
2023-04-17T12:25:20.811Z,7732.00
2023-04-17T12:30:20.761Z,9440.00
2023-04-17T12:35:20.750Z,8584.00
2023-04-17T12:40:23.038Z,7484.00
2023-04-17T12:45:20.594Z,7564.00
2023-04-17T12:50:20.537Z,7892.00
2023-04-17T12:55:20.503Z,7912.00
2023-04-17T13:00:20.432Z,9216.00
2023-04-17T13:05:20.358Z,8896.00
2023-04-17T13:10:20.311Z,6920.00
2023-04-17T13:15:20.278Z,8080.00
2023-04-17T13:20:20.197Z,9372.00
2023-04-17T13:25:20.149Z,8832.00
2023-04-17T13:30:20.112Z,7540.00
2023-04-17T13:35:20.061Z,7624.00
2023-04-17T13:40:19.981Z,8448.00
2023-04-17T13:45:19.927Z,8324.00
2023-04-17T13:50:19.868Z,5292.00
2023-04-17T13:55:19.893Z,5484.00
2023-04-17T14:00:19.761Z,8160.00
2023-04-17T14:05:19.719Z,7904.00
2023-04-17T14:10:19.662Z,4312.00
2023-04-17T14:15:19.685Z,4172.00
2023-04-17T14:20:19.550Z,6876.00
2023-04-17T14:25:19.503Z,7400.00
2023-04-17T14:30:19.449Z,8084.00
2023-04-17T14:35:19.575Z,7692.00
2023-04-17T14:40:19.338Z,8464.00
2023-04-17T14:45:19.286Z,7568.00
2023-04-17T14:50:19.316Z,7248.00
2023-04-17T14:55:19.194Z,4036.00
2023-04-17T15:00:19.131Z,3856.00
2023-04-17T15:05:19.080Z,4356.00
2023-04-17T15:10:19.012Z,5648.00
2023-04-17T15:15:18.999Z,5072.00
2023-04-17T15:20:19.694Z,6424.00
2023-04-17T15:25:18.856Z,3492.00
2023-04-17T15:30:18.803Z,3156.00
2023-04-17T15:35:18.857Z,3348.00
2023-04-17T15:40:18.693Z,5316.00
2023-04-17T15:45:18.637Z,6144.00
2023-04-17T15:50:18.583Z,5920.00
2023-04-17T15:55:18.569Z,5528.00
2023-04-17T16:00:18.474Z,3124.00
2023-04-17T16:05:18.423Z,3072.00
2023-04-17T16:10:18.363Z,3180.00
2023-04-17T16:15:18.324Z,4368.00
2023-04-17T16:20:25.307Z,4108.00
2023-04-17T16:25:20.678Z,4124.00
2023-04-17T16:30:18.229Z,4240.00
2023-04-17T16:35:18.180Z,4104.00
2023-04-17T16:40:18.132Z,3668.00
2023-04-17T16:45:17.981Z,3320.00
2023-04-17T16:50:17.942Z,3064.00
2023-04-17T16:55:17.921Z,2944.00
2023-04-17T17:00:17.822Z,2864.00
2023-04-17T17:05:17.761Z,2732.00
2023-04-17T17:10:17.714Z,2528.00
2023-04-17T17:15:19.072Z,2248.00
2023-04-17T17:20:17.632Z,2036.00
2023-04-17T17:25:17.575Z,1848.00
2023-04-17T17:30:17.498Z,1704.00
2023-04-17T17:35:17.457Z,1588.00
2023-04-17T17:40:17.428Z,1456.00
2023-04-17T17:45:17.330Z,1324.00
2023-04-17T17:50:17.276Z,1156.00
2023-04-17T17:55:17.254Z,1004.00
2023-04-17T18:00:17.264Z,848.00
2023-04-17T18:05:17.110Z,696.00
2023-04-17T18:10:17.057Z,548.00
2023-04-17T18:15:17.024Z,412.00
2023-04-17T18:20:16.968Z,296.00
2023-04-17T18:25:16.923Z,204.00
2023-04-17T18:30:16.903Z,128.00
2023-04-17T18:35:16.856Z,72.00
2023-04-17T18:40:16.725Z,36.00
2023-04-17T18:45:16.679Z,20.00
2023-04-17T18:50:16.640Z,8.00
2023-04-17T18:55:16.616Z,4.00
2023-04-17T19:00:16.522Z,0.00
2023-04-17T19:05:16.465Z,0.00
2023-04-17T19:10:16.394Z,0.00
2023-04-17T19:15:16.362Z,0.00
2023-04-17T19:20:16.271Z,0.00
2023-04-17T19:25:16.240Z,0.00
2023-04-17T19:30:16.168Z,0.00
2023-04-17T19:35:16.157Z,0.00
2023-04-17T19:40:24.556Z,0.00
2023-04-17T19:45:17.022Z,0.00
2023-04-17T19:50:15.948Z,0.00
2023-04-17T19:55:15.960Z,0.00
2023-04-17T20:00:15.838Z,0.00
2023-04-17T20:05:15.782Z,0.00
2023-04-17T20:10:15.782Z,0.00
2023-04-17T20:15:15.833Z,0.00
2023-04-17T20:20:15.619Z,0.00
2023-04-17T20:25:15.572Z,0.00
2023-04-17T20:30:15.535Z,0.00
2023-04-17T20:35:15.478Z,0.00
2023-04-17T20:40:15.409Z,0.00
2023-04-17T20:45:15.377Z,0.00
2023-04-17T20:50:15.297Z,0.00
2023-04-17T20:55:15.340Z,0.00
2023-04-17T21:00:15.188Z,0.00
2023-04-17T21:05:15.144Z,0.00
2023-04-17T21:10:15.114Z,0.00
2023-04-17T21:15:15.041Z,0.00
2023-04-17T21:20:14.970Z,0.00
2023-04-17T21:25:14.921Z,0.00
2023-04-17T21:30:14.893Z,0.00
2023-04-17T21:35:14.932Z,0.00
2023-04-17T21:40:14.756Z,0.00
2023-04-17T21:45:14.699Z,0.00
2023-04-17T21:50:14.654Z,0.00
2023-04-17T21:55:14.614Z,0.00
2023-04-17T22:00:14.546Z,0.00
2023-04-17T22:05:14.487Z,0.00
2023-04-17T22:10:14.442Z,0.00
2023-04-17T22:15:14.497Z,0.00
2023-04-17T22:20:21.358Z,0.00
2023-04-17T22:25:14.270Z,0.00
2023-04-17T22:30:14.222Z,0.00
2023-04-17T22:35:14.186Z,0.00
2023-04-17T22:40:14.116Z,0.00
2023-04-17T22:45:14.076Z,0.00
2023-04-17T22:50:14.004Z,0.00
2023-04-17T22:55:13.984Z,0.00
2023-04-17T23:00:13.912Z,0.00
2023-04-17T23:05:13.926Z,0.00
2023-04-17T23:10:13.792Z,0.00
2023-04-17T23:15:13.756Z,0.00
2023-04-17T23:20:13.684Z,0.00
2023-04-17T23:25:13.647Z,0.00
